createdAt,value
2022-08-17T00:01:51.965Z,14.63
2022-08-17T00:04:40.324Z,15.52
2022-08-17T00:07:27.582Z,14.00
2022-08-17T00:10:14.843Z,11.95
2022-08-17T00:13:08.471Z,15.18
2022-08-17T00:15:59.725Z,16.55
2022-08-17T00:18:57.482Z,14.13
2022-08-17T00:22:31.360Z,13.77
2022-08-17T00:25:09.241Z,13.05
2022-08-17T00:27:56.502Z,13.85
2022-08-17T00:30:52.905Z,13.50
2022-08-17T00:33:43.764Z,11.35
2022-08-17T00:36:31.064Z,13.30
2022-08-17T00:39:18.312Z,13.07
2022-08-17T00:42:16.742Z,11.75
2022-08-17T00:45:07.110Z,13.20
2022-08-17T00:47:54.357Z,11.15
2022-08-17T00:50:49.584Z,12.48
2022-08-17T00:53:41.806Z,12.27
2022-08-17T00:56:34.117Z,12.20
2022-08-17T00:59:25.700Z,12.75
2022-08-17T01:02:15.445Z,11.27
2022-08-17T01:05:02.808Z,12.98
2022-08-17T01:07:50.865Z,8.73
2022-08-17T01:10:57.103Z,13.48
2022-08-17T01:13:49.006Z,13.98
2022-08-17T01:16:37.500Z,12.50
2022-08-17T01:19:28.597Z,11.88
2022-08-17T01:22:18.507Z,12.15
2022-08-17T01:25:08.177Z,11.32
2022-08-17T01:27:55.490Z,9.48
2022-08-17T01:30:56.510Z,10.55
2022-08-17T01:33:44.912Z,9.98
2022-08-17T01:36:32.293Z,8.60
2022-08-17T01:39:33.307Z,10.63
2022-08-17T01:42:30.623Z,11.15
2022-08-17T01:45:23.002Z,9.10
2022-08-17T01:48:11.933Z,10.57
2022-08-17T01:51:00.299Z,9.43
2022-08-17T01:53:51.638Z,10.50
2022-08-17T01:56:47.389Z,9.20
2022-08-17T01:59:35.023Z,10.57
2022-08-17T02:02:30.988Z,9.88
2022-08-17T02:05:19.125Z,7.55
2022-08-17T02:08:20.096Z,11.25
2022-08-17T02:11:12.011Z,10.82
2022-08-17T02:14:03.597Z,9.02
2022-08-17T02:16:51.249Z,9.65
2022-08-17T02:19:38.539Z,9.68
2022-08-17T02:22:27.891Z,7.72
2022-08-17T02:25:18.157Z,8.77
2022-08-17T02:28:05.470Z,10.57
2022-08-17T02:31:01.383Z,9.68
2022-08-17T02:34:03.331Z,11.38
2022-08-17T02:36:53.386Z,11.98
2022-08-17T02:39:40.747Z,11.53
2022-08-17T02:42:34.957Z,9.73
2022-08-17T02:45:24.356Z,9.25
2022-08-17T02:48:11.726Z,12.07
2022-08-17T02:51:00.234Z,10.38
2022-08-17T02:53:47.540Z,11.48
2022-08-17T02:56:34.838Z,9.30
2022-08-17T02:59:22.382Z,12.23
2022-08-17T03:02:11.793Z,13.63
2022-08-17T03:07:46.617Z,10.50
2022-08-17T03:10:34.133Z,10.82
2022-08-17T03:13:22.475Z,12.98
2022-08-17T03:16:09.803Z,9.50
2022-08-17T03:18:57.402Z,11.48
2022-08-17T03:21:44.653Z,12.00
2022-08-17T03:24:31.894Z,8.95
2022-08-17T03:27:19.174Z,10.23
2022-08-17T03:30:08.537Z,10.40
2022-08-17T03:33:00.079Z,10.45
2022-08-17T03:35:47.723Z,10.18
2022-08-17T03:38:38.964Z,8.80
2022-08-17T03:41:26.789Z,10.15
2022-08-17T03:44:14.053Z,11.57
2022-08-17T03:47:19.972Z,10.05
2022-08-17T03:50:27.495Z,10.68
2022-08-17T03:53:35.870Z,10.95
2022-08-17T03:56:41.690Z,12.02
2022-08-17T03:59:29.603Z,12.05
2022-08-17T04:02:24.599Z,11.45
2022-08-17T04:05:11.938Z,12.25
2022-08-17T04:07:59.189Z,11.30
2022-08-17T04:10:46.806Z,11.95
2022-08-17T04:13:34.091Z,12.07
2022-08-17T04:16:21.414Z,15.02
2022-08-17T04:19:08.658Z,11.65
2022-08-17T04:21:57.647Z,12.15
2022-08-17T04:24:44.899Z,13.25
2022-08-17T04:27:32.440Z,10.45
2022-08-17T04:30:19.827Z,14.38
2022-08-17T04:33:14.131Z,10.30
2022-08-17T04:36:04.407Z,12.18
2022-08-17T04:38:51.765Z,14.32
2022-08-17T04:41:57.482Z,13.25
2022-08-17T04:44:44.734Z,10.88
2022-08-17T04:47:31.987Z,13.52
2022-08-17T04:50:19.227Z,14.18
2022-08-17T04:53:06.634Z,12.40
2022-08-17T04:55:54.945Z,10.93
2022-08-17T04:58:45.190Z,11.45
2022-08-17T05:01:34.672Z,10.35
2022-08-17T05:07:24.660Z,13.30
2022-08-17T05:10:13.646Z,11.13
2022-08-17T05:13:02.859Z,11.32
2022-08-17T05:15:54.790Z,11.18
2022-08-17T05:18:42.432Z,16.83
2022-08-17T05:21:29.719Z,13.10
2022-08-17T05:24:40.707Z,13.23
2022-08-17T05:27:24.289Z,12.65
2022-08-17T05:30:17.426Z,13.73
2022-08-17T05:33:07.838Z,11.85
2022-08-17T05:35:57.423Z,10.10
2022-08-17T05:38:44.690Z,9.40
2022-08-17T05:41:31.919Z,11.93
2022-08-17T05:44:19.158Z,12.30
2022-08-17T05:47:06.427Z,9.35
2022-08-17T05:49:58.737Z,11.77
2022-08-17T05:53:10.910Z,10.00
2022-08-17T05:56:30.200Z,10.68
2022-08-17T05:59:34.989Z,11.18
2022-08-17T06:03:12.770Z,13.18
2022-08-17T06:06:14.506Z,13.88
2022-08-17T06:09:33.837Z,13.05
2022-08-17T06:12:42.754Z,13.27
2022-08-17T06:15:42.230Z,17.67
2022-08-17T06:21:38.713Z,18.60
2022-08-17T06:24:43.812Z,15.27
2022-08-17T06:27:53.397Z,14.82
2022-08-17T06:30:59.995Z,16.15
2022-08-17T06:33:49.605Z,15.75
2022-08-17T06:37:01.593Z,15.02
2022-08-17T06:40:32.749Z,21.20
2022-08-17T06:43:22.886Z,17.58
2022-08-17T06:46:21.970Z,17.40
2022-08-17T06:49:33.739Z,19.75
2022-08-17T06:52:46.611Z,20.75
2022-08-17T06:55:51.761Z,16.02
2022-08-17T06:58:41.869Z,14.35
2022-08-17T07:01:34.607Z,16.13
2022-08-17T07:04:28.826Z,14.40
2022-08-17T07:07:38.387Z,13.90
2022-08-17T07:10:27.426Z,15.13
2022-08-17T07:13:53.625Z,19.00
2022-08-17T07:17:10.286Z,14.98
2022-08-17T07:20:05.860Z,15.27
2022-08-17T07:23:00.030Z,18.73
2022-08-17T07:25:49.125Z,11.93
2022-08-17T07:28:36.934Z,15.50
2022-08-17T07:31:28.431Z,15.07
2022-08-17T07:34:15.749Z,17.33
2022-08-17T07:37:05.154Z,18.45
2022-08-17T07:43:05.245Z,17.33
2022-08-17T07:46:16.899Z,19.42
2022-08-17T07:49:04.948Z,14.55
2022-08-17T07:51:52.116Z,15.40
2022-08-17T07:54:42.652Z,14.95
2022-08-17T07:57:33.408Z,14.98
2022-08-17T08:00:27.984Z,15.32
2022-08-17T08:03:31.714Z,16.30
2022-08-17T08:06:23.537Z,15.90
2022-08-17T08:09:28.892Z,16.83
2022-08-17T08:12:25.238Z,16.60
2022-08-17T08:15:23.218Z,15.52
2022-08-17T08:18:54.218Z,15.85
2022-08-17T08:21:55.106Z,19.67
2022-08-17T08:25:07.659Z,19.77
2022-08-17T08:28:15.516Z,19.92
2022-08-17T08:31:14.781Z,16.17
2022-08-17T08:34:53.493Z,17.25
2022-08-17T08:37:49.771Z,19.05
2022-08-17T08:41:07.798Z,15.65
2022-08-17T08:44:08.602Z,15.93
2022-08-17T08:47:21.469Z,17.35
2022-08-17T08:50:37.221Z,18.48
2022-08-17T08:53:29.872Z,19.08
2022-08-17T08:56:53.789Z,19.92
2022-08-17T09:00:22.512Z,18.90
2022-08-17T09:03:51.212Z,18.30
2022-08-17T09:07:01.174Z,23.02
2022-08-17T09:09:59.666Z,18.83
2022-08-17T09:13:10.269Z,19.70
2022-08-17T09:16:05.029Z,20.40
2022-08-17T09:19:00.336Z,19.08
2022-08-17T09:21:55.279Z,19.52
2022-08-17T09:24:54.606Z,18.63
2022-08-17T09:30:46.042Z,17.63
2022-08-17T09:33:39.850Z,16.60
2022-08-17T09:36:40.723Z,18.83
2022-08-17T09:39:39.197Z,17.00
2022-08-17T09:42:58.171Z,20.83
2022-08-17T09:45:51.957Z,19.88
2022-08-17T09:48:45.636Z,17.10
2022-08-17T09:51:40.011Z,18.63
2022-08-17T09:54:39.989Z,18.42
2022-08-17T09:57:49.726Z,18.85
2022-08-17T10:03:52.289Z,17.70
2022-08-17T10:07:11.420Z,21.67
2022-08-17T10:10:14.396Z,24.10
2022-08-17T10:13:12.068Z,19.48
2022-08-17T10:16:22.960Z,21.00
2022-08-17T10:19:20.281Z,16.55
2022-08-17T10:22:37.878Z,19.23
2022-08-17T10:26:00.058Z,21.48
2022-08-17T10:28:50.093Z,19.13
2022-08-17T10:31:45.865Z,16.33
2022-08-17T10:34:55.711Z,19.90
2022-08-17T10:37:57.060Z,17.83
2022-08-17T10:41:21.097Z,18.35
2022-08-17T10:44:45.387Z,16.38
2022-08-17T10:48:04.755Z,16.83
2022-08-17T10:50:55.863Z,18.60
2022-08-17T10:53:43.480Z,19.08
2022-08-17T10:56:43.464Z,19.15
2022-08-17T10:59:36.448Z,19.30
2022-08-17T11:02:31.392Z,20.45
2022-08-17T11:05:43.860Z,19.08
2022-08-17T11:09:06.695Z,16.52
2022-08-17T11:12:09.156Z,18.48
2022-08-17T11:15:14.986Z,18.63
2022-08-17T11:18:11.321Z,17.58
2022-08-17T11:21:43.934Z,18.08
2022-08-17T11:24:47.632Z,20.10
2022-08-17T11:27:36.501Z,17.63
2022-08-17T11:30:52.295Z,18.30
2022-08-17T11:33:42.431Z,21.77
2022-08-17T11:36:35.169Z,23.23
2022-08-17T11:40:01.585Z,17.38
2022-08-17T11:42:57.831Z,21.13
2022-08-17T11:45:53.455Z,19.35
2022-08-17T11:49:11.505Z,18.55
2022-08-17T11:52:01.800Z,17.42
2022-08-17T11:54:49.091Z,19.33
2022-08-17T11:57:55.434Z,31.50
2022-08-17T12:00:45.329Z,25.55
2022-08-17T12:03:33.159Z,20.88
2022-08-17T12:06:39.799Z,19.60
2022-08-17T12:09:34.424Z,21.30
2022-08-17T12:12:33.200Z,20.55
2022-08-17T12:15:29.857Z,19.65
2022-08-17T12:18:24.544Z,19.00
2022-08-17T12:21:30.446Z,18.98
2022-08-17T12:25:08.169Z,19.02
2022-08-17T12:28:04.967Z,18.80
2022-08-17T12:30:54.886Z,20.20
2022-08-17T12:33:47.352Z,20.08
2022-08-17T12:36:35.278Z,20.55
2022-08-17T12:39:25.148Z,20.40
2022-08-17T12:42:23.953Z,19.88
2022-08-17T12:45:31.845Z,18.15
2022-08-17T12:48:25.033Z,18.08
2022-08-17T12:51:12.956Z,18.85
2022-08-17T12:54:00.350Z,19.40
2022-08-17T12:56:47.904Z,16.83
2022-08-17T12:59:41.070Z,15.75
2022-08-17T13:02:37.987Z,18.88
2022-08-17T13:05:27.945Z,18.45
2022-08-17T13:08:28.718Z,19.60
2022-08-17T13:11:18.523Z,17.25
2022-08-17T13:14:10.154Z,21.35
2022-08-17T13:17:00.185Z,16.38
2022-08-17T13:19:50.452Z,16.50
2022-08-17T13:22:38.746Z,19.15
2022-08-17T13:25:27.612Z,18.33
2022-08-17T13:28:36.170Z,17.13
2022-08-17T13:31:51.811Z,16.23
2022-08-17T13:35:11.998Z,18.02
2022-08-17T13:38:04.069Z,19.50
2022-08-17T13:40:52.950Z,16.85
2022-08-17T13:43:50.447Z,16.95
2022-08-17T13:46:38.110Z,18.15
2022-08-17T13:49:41.527Z,17.27
2022-08-17T13:52:43.142Z,18.95
2022-08-17T13:55:31.984Z,17.33
2022-08-17T13:58:32.030Z,17.02
2022-08-17T14:01:41.986Z,20.95
2022-08-17T14:04:34.335Z,17.90
2022-08-17T14:07:30.100Z,18.13
2022-08-17T14:10:18.051Z,19.05
2022-08-17T14:13:06.635Z,18.55
2022-08-17T14:15:56.589Z,16.77
2022-08-17T14:18:56.802Z,18.13
2022-08-17T14:21:46.823Z,26.05
2022-08-17T14:24:41.207Z,15.43
2022-08-17T14:27:33.926Z,17.30
2022-08-17T14:30:30.001Z,18.52
2022-08-17T14:33:24.682Z,20.05
2022-08-17T14:36:12.155Z,20.42
2022-08-17T14:38:59.402Z,18.95
2022-08-17T14:41:47.167Z,18.08
2022-08-17T14:44:34.520Z,20.73
2022-08-17T14:47:22.261Z,20.58
2022-08-17T14:50:12.035Z,18.77
2022-08-17T14:53:10.026Z,20.05
2022-08-17T14:55:57.293Z,19.23
2022-08-17T14:58:44.581Z,20.08
2022-08-17T15:01:32.153Z,19.95
2022-08-17T15:04:19.499Z,21.25
2022-08-17T15:07:07.077Z,18.85
2022-08-17T15:09:54.363Z,20.45
2022-08-17T15:12:42.309Z,19.10
2022-08-17T15:15:29.826Z,20.05
2022-08-17T15:18:17.577Z,23.05
2022-08-17T15:21:06.107Z,19.77
2022-08-17T15:23:53.383Z,19.33
2022-08-17T15:26:40.718Z,20.60
2022-08-17T15:29:28.697Z,17.88
2022-08-17T15:32:29.473Z,17.60
2022-08-17T15:35:16.713Z,20.98
2022-08-17T15:38:11.729Z,20.50
2022-08-17T15:40:59.607Z,21.30
2022-08-17T15:43:50.032Z,25.52
2022-08-17T15:46:37.343Z,24.75
2022-08-17T15:49:27.533Z,18.23
2022-08-17T15:52:40.499Z,17.90
2022-08-17T15:55:30.485Z,20.15
2022-08-17T15:58:17.762Z,18.48
2022-08-17T16:01:14.843Z,18.85
2022-08-17T16:04:07.057Z,18.48
2022-08-17T16:06:54.632Z,18.58
2022-08-17T16:09:41.956Z,23.13
2022-08-17T16:12:29.339Z,22.23
2022-08-17T16:15:17.614Z,18.65
2022-08-17T16:18:05.162Z,22.10
2022-08-17T16:20:53.209Z,18.70
2022-08-17T16:23:40.480Z,17.60
2022-08-17T16:26:29.973Z,16.77
2022-08-17T16:29:17.805Z,17.67
2022-08-17T16:32:19.722Z,18.88
2022-08-17T16:35:21.935Z,17.50
2022-08-17T16:38:09.545Z,18.98
2022-08-17T16:40:56.833Z,17.80
2022-08-17T16:43:45.518Z,19.95
2022-08-17T16:46:33.417Z,20.92
2022-08-17T16:49:26.768Z,21.48
2022-08-17T16:52:32.285Z,19.92
2022-08-17T16:55:22.089Z,23.83
2022-08-17T16:58:09.865Z,21.40
2022-08-17T17:00:59.891Z,18.52
2022-08-17T17:03:57.677Z,17.73
2022-08-17T17:07:05.757Z,17.35
2022-08-17T17:09:55.387Z,20.05
2022-08-17T17:13:03.095Z,21.88
2022-08-17T17:16:16.962Z,18.50
2022-08-17T17:19:35.360Z,19.60
2022-08-17T17:22:48.044Z,18.20
2022-08-17T17:25:59.109Z,19.88
2022-08-17T17:28:47.289Z,17.05
2022-08-17T17:31:47.982Z,17.67
2022-08-17T17:34:37.757Z,18.92
2022-08-17T17:37:32.235Z,19.20
2022-08-17T17:40:31.777Z,19.00
2022-08-17T17:43:38.236Z,19.38
2022-08-17T17:46:33.260Z,19.27
2022-08-17T17:49:20.857Z,18.45
2022-08-17T17:52:18.427Z,15.52
2022-08-17T17:55:27.918Z,16.48
2022-08-17T17:58:40.690Z,15.95
2022-08-17T18:01:53.821Z,17.88
2022-08-17T18:05:02.274Z,15.30
2022-08-17T18:08:32.269Z,15.88
2022-08-17T18:11:34.869Z,15.15
2022-08-17T18:14:34.419Z,16.33
2022-08-17T18:17:22.094Z,15.95
2022-08-17T18:20:09.386Z,16.80
2022-08-17T18:22:56.677Z,16.85
2022-08-17T18:25:47.903Z,15.45
2022-08-17T18:28:41.069Z,18.58
2022-08-17T18:31:31.492Z,15.93
2022-08-17T18:34:46.047Z,16.88
2022-08-17T18:37:34.678Z,15.68
2022-08-17T18:40:35.651Z,17.50
2022-08-17T18:43:44.379Z,15.63
2022-08-17T18:46:39.032Z,17.17
2022-08-17T18:49:28.711Z,17.70
2022-08-17T18:52:21.263Z,17.90
2022-08-17T18:55:13.003Z,15.73
2022-08-17T18:58:16.338Z,16.73
2022-08-17T19:01:18.376Z,19.77
2022-08-17T19:04:13.067Z,16.02
2022-08-17T19:07:24.453Z,18.83
2022-08-17T19:10:28.087Z,18.33
2022-08-17T19:13:23.887Z,16.88
2022-08-17T19:16:17.975Z,17.33
2022-08-17T19:19:14.233Z,19.60
2022-08-17T19:22:21.373Z,18.88
2022-08-17T19:25:27.031Z,17.05
2022-08-17T19:28:24.756Z,17.75
2022-08-17T19:31:22.102Z,16.20
2022-08-17T19:34:13.070Z,18.58
2022-08-17T19:37:06.873Z,20.67
2022-08-17T19:40:35.115Z,18.13
2022-08-17T19:43:35.326Z,17.55
2022-08-17T19:46:49.983Z,17.67
2022-08-17T19:49:58.222Z,18.50
2022-08-17T19:53:03.485Z,16.38
2022-08-17T19:56:11.218Z,17.00
2022-08-17T19:59:09.059Z,17.67
2022-08-17T20:02:13.606Z,18.05
2022-08-17T20:05:06.369Z,16.95
2022-08-17T20:08:03.066Z,15.95
2022-08-17T20:10:55.423Z,15.98
2022-08-17T20:13:54.850Z,15.23
2022-08-17T20:19:37.223Z,15.35
2022-08-17T20:22:49.675Z,14.80
2022-08-17T20:25:47.611Z,15.45
2022-08-17T20:28:38.814Z,16.25
2022-08-17T20:31:55.449Z,15.82
2022-08-17T20:34:46.383Z,15.73
2022-08-17T20:37:36.101Z,15.05
2022-08-17T20:40:30.514Z,16.55
2022-08-17T20:43:32.706Z,14.48
2022-08-17T20:46:51.299Z,15.23
2022-08-17T20:49:50.579Z,15.95
2022-08-17T20:52:49.089Z,16.02
2022-08-17T20:55:36.373Z,16.07
2022-08-17T20:58:46.438Z,15.07
2022-08-17T21:01:40.454Z,16.05
2022-08-17T21:04:57.495Z,18.25
2022-08-17T21:07:53.079Z,15.27
2022-08-17T21:10:41.801Z,16.73
2022-08-17T21:13:39.945Z,14.60
2022-08-17T21:16:41.215Z,16.23
2022-08-17T21:20:07.621Z,15.93
2022-08-17T21:26:17.213Z,16.15
2022-08-17T21:29:31.858Z,18.40
2022-08-17T21:32:28.939Z,15.93
2022-08-17T21:35:19.173Z,15.20
2022-08-17T21:38:14.768Z,18.17
2022-08-17T21:41:02.040Z,19.67
2022-08-17T21:43:51.409Z,17.20
2022-08-17T21:46:42.786Z,17.95
2022-08-17T21:49:34.982Z,16.40
2022-08-17T21:52:27.373Z,16.65
2022-08-17T21:58:28.758Z,15.98
2022-08-17T22:01:25.844Z,15.80
2022-08-17T22:04:13.093Z,17.52
2022-08-17T22:07:03.816Z,18.00
2022-08-17T22:09:51.070Z,20.60
2022-08-17T22:12:38.414Z,18.42
2022-08-17T22:15:25.670Z,18.50
2022-08-17T22:18:20.920Z,20.92
2022-08-17T22:21:08.783Z,18.95
2022-08-17T22:24:06.894Z,20.17
2022-08-17T22:27:11.410Z,22.15
2022-08-17T22:29:59.651Z,19.67
2022-08-17T22:32:49.278Z,20.88
2022-08-17T22:35:43.712Z,21.90
2022-08-17T22:38:32.106Z,19.83
2022-08-17T22:41:52.193Z,20.95
2022-08-17T22:44:48.552Z,20.67
2022-08-17T22:47:39.354Z,21.77
2022-08-17T22:50:29.142Z,21.90
2022-08-17T22:53:40.037Z,22.15
2022-08-17T22:56:45.915Z,21.48
2022-08-17T22:59:55.429Z,22.42
2022-08-17T23:03:05.614Z,22.88
2022-08-17T23:06:09.506Z,20.83
2022-08-17T23:08:57.611Z,19.30
2022-08-17T23:11:49.726Z,21.40
2022-08-17T23:14:45.662Z,20.15
2022-08-17T23:17:37.070Z,20.30
2022-08-17T23:20:24.975Z,19.75
2022-08-17T23:23:14.016Z,26.60
2022-08-17T23:26:01.613Z,21.48
2022-08-17T23:28:49.400Z,23.58
2022-08-17T23:31:38.502Z,22.60
2022-08-17T23:34:26.310Z,20.52
2022-08-17T23:37:15.030Z,22.40
2022-08-17T23:40:05.279Z,21.75
2022-08-17T23:42:53.024Z,21.83
2022-08-17T23:45:42.662Z,20.42
2022-08-17T23:48:36.110Z,21.55
2022-08-17T23:51:31.365Z,23.67
2022-08-17T23:54:35.023Z,24.50
2022-08-17T23:57:33.927Z,20.88
